sensor_id;sensor_type;location;lat;lon;timestamp;temperature;humidity
4813;DHT22;2420;51.202;8.698;2022-12-10T00:02:10;-2.50;1.00
4813;DHT22;2420;51.202;8.698;2022-12-10T00:04:36;-2.60;1.00
4813;DHT22;2420;51.202;8.698;2022-12-10T00:07:01;-2.80;1.00
4813;DHT22;2420;51.202;8.698;2022-12-10T00:09:27;-2.80;1.00
4813;DHT22;2420;51.202;8.698;2022-12-10T00:11:52;-2.80;1.00
4813;DHT22;2420;51.202;8.698;2022-12-10T00:14:18;-2.70;1.00
4813;DHT22;2420;51.202;8.698;2022-12-10T00:16:44;-2.60;1.00
4813;DHT22;2420;51.202;8.698;2022-12-10T00:19:09;-2.70;1.00
4813;DHT22;2420;51.202;8.698;2022-12-10T00:21:36;-2.80;1.00
4813;DHT22;2420;51.202;8.698;2022-12-10T00:24:03;-3.00;1.00
4813;DHT22;2420;51.202;8.698;2022-12-10T00:26:34;-3.10;1.00
4813;DHT22;2420;51.202;8.698;2022-12-10T00:29:01;-2.90;1.00
4813;DHT22;2420;51.202;8.698;2022-12-10T00:31:30;-3.00;1.00
4813;DHT22;2420;51.202;8.698;2022-12-10T00:33:57;-3.10;1.00
4813;DHT22;2420;51.202;8.698;2022-12-10T00:36:35;-3.10;1.00
4813;DHT22;2420;51.202;8.698;2022-12-10T00:39:02;-3.00;1.00
4813;DHT22;2420;51.202;8.698;2022-12-10T00:41:28;-3.00;1.00
4813;DHT22;2420;51.202;8.698;2022-12-10T00:43:54;-3.20;1.00
4813;DHT22;2420;51.202;8.698;2022-12-10T00:46:20;-3.00;1.00
4813;DHT22;2420;51.202;8.698;2022-12-10T00:48:46;-3.10;1.00
4813;DHT22;2420;51.202;8.698;2022-12-10T00:51:23;-3.30;1.00
4813;DHT22;2420;51.202;8.698;2022-12-10T00:53:51;-3.00;1.00
4813;DHT22;2420;51.202;8.698;2022-12-10T00:56:22;-3.40;1.00
4813;DHT22;2420;51.202;8.698;2022-12-10T00:58:48;-3.20;1.00
4813;DHT22;2420;51.202;8.698;2022-12-10T01:03:52;-3.20;1.00
4813;DHT22;2420;51.202;8.698;2022-12-10T01:06:24;-3.10;1.00
4813;DHT22;2420;51.202;8.698;2022-12-10T01:08:51;-3.20;1.00
4813;DHT22;2420;51.202;8.698;2022-12-10T01:11:19;-2.90;1.00
4813;DHT22;2420;51.202;8.698;2022-12-10T01:13:46;-2.90;1.00
4813;DHT22;2420;51.202;8.698;2022-12-10T01:16:14;-3.00;1.00
4813;DHT22;2420;51.202;8.698;2022-12-10T01:18:41;-3.20;1.00
4813;DHT22;2420;51.202;8.698;2022-12-10T01:21:10;-3.10;1.00
4813;DHT22;2420;51.202;8.698;2022-12-10T01:23:38;-3.20;1.00
4813;DHT22;2420;51.202;8.698;2022-12-10T01:26:06;-3.50;1.00
4813;DHT22;2420;51.202;8.698;2022-12-10T01:28:35;-3.30;1.00
4813;DHT22;2420;51.202;8.698;2022-12-10T01:31:03;-3.30;1.00
4813;DHT22;2420;51.202;8.698;2022-12-10T01:33:30;-3.50;1.00
4813;DHT22;2420;51.202;8.698;2022-12-10T01:35:56;-3.40;1.00
4813;DHT22;2420;51.202;8.698;2022-12-10T01:38:22;-3.40;1.00
4813;DHT22;2420;51.202;8.698;2022-12-10T01:40:48;-3.40;1.00
4813;DHT22;2420;51.202;8.698;2022-12-10T01:43:15;-3.60;1.00
4813;DHT22;2420;51.202;8.698;2022-12-10T01:45:40;-3.50;1.00
4813;DHT22;2420;51.202;8.698;2022-12-10T01:48:06;-3.60;1.00
4813;DHT22;2420;51.202;8.698;2022-12-10T01:50:32;-3.60;1.00
4813;DHT22;2420;51.202;8.698;2022-12-10T01:52:58;-3.50;1.00
4813;DHT22;2420;51.202;8.698;2022-12-10T01:55:40;-3.60;1.00
4813;DHT22;2420;51.202;8.698;2022-12-10T01:58:06;-3.80;1.00
4813;DHT22;2420;51.202;8.698;2022-12-10T02:00:33;-3.70;1.00
4813;DHT22;2420;51.202;8.698;2022-12-10T02:03:08;-3.70;1.00
4813;DHT22;2420;51.202;8.698;2022-12-10T02:05:51;-3.80;1.00
4813;DHT22;2420;51.202;8.698;2022-12-10T02:08:27;-4.00;1.00
4813;DHT22;2420;51.202;8.698;2022-12-10T02:11:06;-3.90;1.00
4813;DHT22;2420;51.202;8.698;2022-12-10T02:13:39;-3.70;1.00
4813;DHT22;2420;51.202;8.698;2022-12-10T02:16:13;-3.70;1.00
4813;DHT22;2420;51.202;8.698;2022-12-10T02:18:53;-3.80;1.00
4813;DHT22;2420;51.202;8.698;2022-12-10T02:21:27;-3.80;1.00
4813;DHT22;2420;51.202;8.698;2022-12-10T02:23:57;-3.80;1.00
4813;DHT22;2420;51.202;8.698;2022-12-10T02:27:40;-4.00;1.00
4813;DHT22;2420;51.202;8.698;2022-12-10T02:29:32;-3.90;1.00
4813;DHT22;2420;51.202;8.698;2022-12-10T02:32:21;-3.90;1.00
4813;DHT22;2420;51.202;8.698;2022-12-10T02:34:52;-3.80;1.00
4813;DHT22;2420;51.202;8.698;2022-12-10T02:37:45;-3.90;1.00
4813;DHT22;2420;51.202;8.698;2022-12-10T02:40:17;-3.90;1.00
4813;DHT22;2420;51.202;8.698;2022-12-10T02:42:44;-4.10;1.00
4813;DHT22;2420;51.202;8.698;2022-12-10T02:45:11;-3.90;1.00
4813;DHT22;2420;51.202;8.698;2022-12-10T02:47:39;-4.10;1.00
4813;DHT22;2420;51.202;8.698;2022-12-10T02:50:05;-4.10;1.00
4813;DHT22;2420;51.202;8.698;2022-12-10T02:52:31;-4.00;1.00
4813;DHT22;2420;51.202;8.698;2022-12-10T02:54:57;-3.90;1.00
4813;DHT22;2420;51.202;8.698;2022-12-10T03:00:07;-4.20;1.00
4813;DHT22;2420;51.202;8.698;2022-12-10T03:07:52;-3.90;1.00
4813;DHT22;2420;51.202;8.698;2022-12-10T03:12:50;-4.10;1.00
4813;DHT22;2420;51.202;8.698;2022-12-10T03:15:19;-3.90;1.00
4813;DHT22;2420;51.202;8.698;2022-12-10T03:17:46;-3.80;1.00
4813;DHT22;2420;51.202;8.698;2022-12-10T03:20:15;-3.60;1.00
4813;DHT22;2420;51.202;8.698;2022-12-10T03:22:44;-3.60;1.00
4813;DHT22;2420;51.202;8.698;2022-12-10T03:25:13;-3.70;1.00
4813;DHT22;2420;51.202;8.698;2022-12-10T03:27:41;-3.80;1.00
4813;DHT22;2420;51.202;8.698;2022-12-10T03:30:08;-3.90;1.00
4813;DHT22;2420;51.202;8.698;2022-12-10T03:32:33;-4.10;1.00
4813;DHT22;2420;51.202;8.698;2022-12-10T03:35:00;-3.90;1.00
4813;DHT22;2420;51.202;8.698;2022-12-10T03:37:27;-4.30;1.00
4813;DHT22;2420;51.202;8.698;2022-12-10T03:39:55;-4.30;1.00
4813;DHT22;2420;51.202;8.698;2022-12-10T03:42:21;-4.10;1.00
4813;DHT22;2420;51.202;8.698;2022-12-10T03:44:50;-4.20;1.00
4813;DHT22;2420;51.202;8.698;2022-12-10T03:47:16;-4.20;1.00
4813;DHT22;2420;51.202;8.698;2022-12-10T03:49:42;-4.10;1.00
4813;DHT22;2420;51.202;8.698;2022-12-10T03:52:08;-4.20;1.00
4813;DHT22;2420;51.202;8.698;2022-12-10T03:54:33;-4.60;1.00
4813;DHT22;2420;51.202;8.698;2022-12-10T03:56:59;-4.20;1.00
4813;DHT22;2420;51.202;8.698;2022-12-10T03:59:25;-4.40;1.00
4813;DHT22;2420;51.202;8.698;2022-12-10T04:01:50;-4.30;1.00
4813;DHT22;2420;51.202;8.698;2022-12-10T04:04:16;-4.30;1.00
4813;DHT22;2420;51.202;8.698;2022-12-10T04:06:42;-4.30;1.00
4813;DHT22;2420;51.202;8.698;2022-12-10T04:09:10;-4.20;1.00
4813;DHT22;2420;51.202;8.698;2022-12-10T04:11:36;-4.50;1.00
4813;DHT22;2420;51.202;8.698;2022-12-10T04:14:01;-4.50;1.00
4813;DHT22;2420;51.202;8.698;2022-12-10T04:16:46;-4.50;1.00
4813;DHT22;2420;51.202;8.698;2022-12-10T04:19:13;-4.40;1.00
4813;DHT22;2420;51.202;8.698;2022-12-10T04:21:40;-4.40;1.00
4813;DHT22;2420;51.202;8.698;2022-12-10T04:24:27;-4.30;1.00
4813;DHT22;2420;51.202;8.698;2022-12-10T04:29:43;-4.50;1.00
4813;DHT22;2420;51.202;8.698;2022-12-10T04:32:09;-4.50;1.00
4813;DHT22;2420;51.202;8.698;2022-12-10T04:34:35;-4.40;1.00
4813;DHT22;2420;51.202;8.698;2022-12-10T04:37:02;-4.60;1.00
4813;DHT22;2420;51.202;8.698;2022-12-10T04:39:27;-4.40;1.00
4813;DHT22;2420;51.202;8.698;2022-12-10T04:41:53;-4.50;1.00
4813;DHT22;2420;51.202;8.698;2022-12-10T04:44:19;-4.80;1.00
4813;DHT22;2420;51.202;8.698;2022-12-10T04:46:45;-4.60;1.00
4813;DHT22;2420;51.202;8.698;2022-12-10T04:49:11;-4.60;1.00
4813;DHT22;2420;51.202;8.698;2022-12-10T04:51:37;-4.70;1.00
4813;DHT22;2420;51.202;8.698;2022-12-10T04:54:03;-4.70;1.00
4813;DHT22;2420;51.202;8.698;2022-12-10T04:56:29;-4.60;1.00
4813;DHT22;2420;51.202;8.698;2022-12-10T04:58:56;-4.50;1.00
4813;DHT22;2420;51.202;8.698;2022-12-10T05:01:22;-4.60;1.00
4813;DHT22;2420;51.202;8.698;2022-12-10T05:03:47;-4.50;1.00
4813;DHT22;2420;51.202;8.698;2022-12-10T05:06:14;-4.60;1.00
4813;DHT22;2420;51.202;8.698;2022-12-10T05:08:40;-4.30;1.00
4813;DHT22;2420;51.202;8.698;2022-12-10T05:11:09;-4.60;1.00
4813;DHT22;2420;51.202;8.698;2022-12-10T05:13:36;-4.60;1.00
4813;DHT22;2420;51.202;8.698;2022-12-10T05:16:03;-4.40;1.00
4813;DHT22;2420;51.202;8.698;2022-12-10T05:18:29;-4.70;1.00
4813;DHT22;2420;51.202;8.698;2022-12-10T05:20:58;-4.50;1.00
4813;DHT22;2420;51.202;8.698;2022-12-10T05:23:24;-4.60;1.00
4813;DHT22;2420;51.202;8.698;2022-12-10T05:26:03;-4.40;1.00
4813;DHT22;2420;51.202;8.698;2022-12-10T05:28:31;-4.40;1.00
4813;DHT22;2420;51.202;8.698;2022-12-10T05:30:57;-4.40;1.00
4813;DHT22;2420;51.202;8.698;2022-12-10T05:33:24;-4.30;1.00
4813;DHT22;2420;51.202;8.698;2022-12-10T05:35:58;-4.00;1.00
4813;DHT22;2420;51.202;8.698;2022-12-10T05:38:24;-4.00;1.00
4813;DHT22;2420;51.202;8.698;2022-12-10T05:40:50;-4.20;1.00
4813;DHT22;2420;51.202;8.698;2022-12-10T05:43:16;-4.10;1.00
4813;DHT22;2420;51.202;8.698;2022-12-10T05:45:42;-4.00;1.00
4813;DHT22;2420;51.202;8.698;2022-12-10T05:48:10;-4.00;1.00
4813;DHT22;2420;51.202;8.698;2022-12-10T05:50:35;-3.80;1.00
4813;DHT22;2420;51.202;8.698;2022-12-10T05:53:01;-3.90;1.00
4813;DHT22;2420;51.202;8.698;2022-12-10T05:55:27;-3.80;1.00
4813;DHT22;2420;51.202;8.698;2022-12-10T05:57:54;-3.70;1.00
4813;DHT22;2420;51.202;8.698;2022-12-10T06:00:20;-3.80;1.00
4813;DHT22;2420;51.202;8.698;2022-12-10T06:02:51;-3.60;1.00
4813;DHT22;2420;51.202;8.698;2022-12-10T06:05:17;-3.50;1.00
4813;DHT22;2420;51.202;8.698;2022-12-10T06:07:43;-3.50;1.00
4813;DHT22;2420;51.202;8.698;2022-12-10T06:10:09;-3.50;1.00
4813;DHT22;2420;51.202;8.698;2022-12-10T06:12:36;-3.20;1.00
4813;DHT22;2420;51.202;8.698;2022-12-10T06:15:02;-3.40;1.00
4813;DHT22;2420;51.202;8.698;2022-12-10T06:17:27;-3.40;1.00
4813;DHT22;2420;51.202;8.698;2022-12-10T06:19:53;-3.40;1.00
4813;DHT22;2420;51.202;8.698;2022-12-10T06:22:18;-3.50;1.00
4813;DHT22;2420;51.202;8.698;2022-12-10T06:24:44;-3.50;1.00
4813;DHT22;2420;51.202;8.698;2022-12-10T06:27:09;-3.60;1.00
4813;DHT22;2420;51.202;8.698;2022-12-10T06:29:35;-3.60;1.00
4813;DHT22;2420;51.202;8.698;2022-12-10T06:32:01;-3.70;1.00
4813;DHT22;2420;51.202;8.698;2022-12-10T06:34:26;-3.80;1.00
4813;DHT22;2420;51.202;8.698;2022-12-10T06:36:52;-3.90;1.00
4813;DHT22;2420;51.202;8.698;2022-12-10T06:39:17;-4.00;1.00
4813;DHT22;2420;51.202;8.698;2022-12-10T06:41:43;-3.70;1.00
4813;DHT22;2420;51.202;8.698;2022-12-10T06:44:10;-4.00;1.00
4813;DHT22;2420;51.202;8.698;2022-12-10T06:46:35;-3.80;1.00
4813;DHT22;2420;51.202;8.698;2022-12-10T06:49:01;-3.80;1.00
4813;DHT22;2420;51.202;8.698;2022-12-10T06:51:27;-4.00;1.00
4813;DHT22;2420;51.202;8.698;2022-12-10T06:53:52;-4.20;1.00
4813;DHT22;2420;51.202;8.698;2022-12-10T06:56:19;-4.20;1.00
4813;DHT22;2420;51.202;8.698;2022-12-10T06:58:45;-4.20;1.00
4813;DHT22;2420;51.202;8.698;2022-12-10T07:01:13;-4.10;1.00
4813;DHT22;2420;51.202;8.698;2022-12-10T07:03:39;-4.30;1.00
4813;DHT22;2420;51.202;8.698;2022-12-10T07:06:06;-4.30;1.00
4813;DHT22;2420;51.202;8.698;2022-12-10T07:08:32;-4.30;1.00
4813;DHT22;2420;51.202;8.698;2022-12-10T07:10:57;-4.10;1.00
4813;DHT22;2420;51.202;8.698;2022-12-10T07:13:24;-4.10;1.00
4813;DHT22;2420;51.202;8.698;2022-12-10T07:15:49;-4.00;1.00
4813;DHT22;2420;51.202;8.698;2022-12-10T07:18:15;-4.40;1.00
4813;DHT22;2420;51.202;8.698;2022-12-10T07:20:41;-4.10;1.00
4813;DHT22;2420;51.202;8.698;2022-12-10T07:23:06;-4.10;1.00
4813;DHT22;2420;51.202;8.698;2022-12-10T07:25:32;-4.30;1.00
4813;DHT22;2420;51.202;8.698;2022-12-10T07:27:58;-4.40;1.00
4813;DHT22;2420;51.202;8.698;2022-12-10T07:30:24;-4.40;1.00
4813;DHT22;2420;51.202;8.698;2022-12-10T07:32:50;-4.20;1.00
4813;DHT22;2420;51.202;8.698;2022-12-10T07:35:15;-4.30;1.00
4813;DHT22;2420;51.202;8.698;2022-12-10T07:37:41;-4.40;1.00
4813;DHT22;2420;51.202;8.698;2022-12-10T07:40:07;-4.40;1.00
4813;DHT22;2420;51.202;8.698;2022-12-10T07:42:32;-4.40;1.00
4813;DHT22;2420;51.202;8.698;2022-12-10T07:44:58;-4.50;1.00
4813;DHT22;2420;51.202;8.698;2022-12-10T07:47:23;-4.40;1.00
4813;DHT22;2420;51.202;8.698;2022-12-10T07:49:49;-4.50;1.00
4813;DHT22;2420;51.202;8.698;2022-12-10T07:52:15;-4.60;1.00
4813;DHT22;2420;51.202;8.698;2022-12-10T07:54:40;-4.50;1.00
4813;DHT22;2420;51.202;8.698;2022-12-10T07:57:06;-4.60;1.00
4813;DHT22;2420;51.202;8.698;2022-12-10T07:59:31;-4.80;1.00
4813;DHT22;2420;51.202;8.698;2022-12-10T08:01:57;-4.70;1.00
4813;DHT22;2420;51.202;8.698;2022-12-10T08:04:22;-4.80;1.00
4813;DHT22;2420;51.202;8.698;2022-12-10T08:06:48;-4.60;1.00
4813;DHT22;2420;51.202;8.698;2022-12-10T08:09:14;-4.70;1.00
4813;DHT22;2420;51.202;8.698;2022-12-10T08:11:39;-4.60;1.00
4813;DHT22;2420;51.202;8.698;2022-12-10T08:14:05;-4.50;1.00
4813;DHT22;2420;51.202;8.698;2022-12-10T08:16:30;-4.50;1.00
4813;DHT22;2420;51.202;8.698;2022-12-10T08:18:58;-4.40;1.00
4813;DHT22;2420;51.202;8.698;2022-12-10T08:21:27;-4.70;1.00
4813;DHT22;2420;51.202;8.698;2022-12-10T08:23:54;-4.60;1.00
4813;DHT22;2420;51.202;8.698;2022-12-10T08:26:23;-4.90;1.00
4813;DHT22;2420;51.202;8.698;2022-12-10T08:28:50;-4.80;1.00
4813;DHT22;2420;51.202;8.698;2022-12-10T08:31:18;-4.70;1.00
4813;DHT22;2420;51.202;8.698;2022-12-10T08:33:44;-4.50;1.00
4813;DHT22;2420;51.202;8.698;2022-12-10T08:36:15;-4.60;1.00
4813;DHT22;2420;51.202;8.698;2022-12-10T08:38:41;-4.50;1.00
4813;DHT22;2420;51.202;8.698;2022-12-10T08:41:13;-4.60;1.00
4813;DHT22;2420;51.202;8.698;2022-12-10T08:43:39;-4.40;1.00
4813;DHT22;2420;51.202;8.698;2022-12-10T08:46:05;-4.60;1.00
4813;DHT22;2420;51.202;8.698;2022-12-10T08:48:31;-4.30;1.00
4813;DHT22;2420;51.202;8.698;2022-12-10T08:50:57;-4.10;1.00
4813;DHT22;2420;51.202;8.698;2022-12-10T08:53:23;-4.10;1.00
4813;DHT22;2420;51.202;8.698;2022-12-10T08:55:53;-4.20;1.00
4813;DHT22;2420;51.202;8.698;2022-12-10T08:58:19;-4.30;1.00
4813;DHT22;2420;51.202;8.698;2022-12-10T09:00:45;-4.20;1.00
4813;DHT22;2420;51.202;8.698;2022-12-10T09:03:11;-4.10;1.00
4813;DHT22;2420;51.202;8.698;2022-12-10T09:05:37;-3.90;1.00
4813;DHT22;2420;51.202;8.698;2022-12-10T09:08:03;-4.00;1.00
4813;DHT22;2420;51.202;8.698;2022-12-10T09:10:28;-3.80;1.00
4813;DHT22;2420;51.202;8.698;2022-12-10T09:12:54;-3.60;1.00
4813;DHT22;2420;51.202;8.698;2022-12-10T09:15:19;-3.40;1.00
4813;DHT22;2420;51.202;8.698;2022-12-10T09:17:45;-3.50;1.00
4813;DHT22;2420;51.202;8.698;2022-12-10T09:20:10;-3.30;1.00
4813;DHT22;2420;51.202;8.698;2022-12-10T09:22:36;-3.20;1.00
4813;DHT22;2420;51.202;8.698;2022-12-10T09:25:04;-2.80;1.00
4813;DHT22;2420;51.202;8.698;2022-12-10T09:27:31;-3.00;1.00
4813;DHT22;2420;51.202;8.698;2022-12-10T09:29:56;-2.80;1.00
4813;DHT22;2420;51.202;8.698;2022-12-10T09:32:22;-2.80;1.00
4813;DHT22;2420;51.202;8.698;2022-12-10T09:34:51;-2.60;1.00
4813;DHT22;2420;51.202;8.698;2022-12-10T09:37:17;-2.60;1.00
4813;DHT22;2420;51.202;8.698;2022-12-10T09:39:42;-2.40;1.00
4813;DHT22;2420;51.202;8.698;2022-12-10T09:47:32;-2.30;1.00
4813;DHT22;2420;51.202;8.698;2022-12-10T09:51:02;-2.30;1.00
4813;DHT22;2420;51.202;8.698;2022-12-10T09:53:10;-2.40;1.00
4813;DHT22;2420;51.202;8.698;2022-12-10T09:55:43;-2.40;1.00
4813;DHT22;2420;51.202;8.698;2022-12-10T09:58:16;-2.30;1.00
4813;DHT22;2420;51.202;8.698;2022-12-10T10:00:45;-2.30;1.00
4813;DHT22;2420;51.202;8.698;2022-12-10T10:03:15;-2.20;1.00
4813;DHT22;2420;51.202;8.698;2022-12-10T10:05:44;-2.00;1.00
4813;DHT22;2420;51.202;8.698;2022-12-10T10:08:27;-2.00;1.00
4813;DHT22;2420;51.202;8.698;2022-12-10T10:10:53;-2.00;1.00
4813;DHT22;2420;51.202;8.698;2022-12-10T10:13:42;-2.10;1.00
4813;DHT22;2420;51.202;8.698;2022-12-10T10:16:28;-1.70;1.00
4813;DHT22;2420;51.202;8.698;2022-12-10T10:18:59;-1.70;1.00
4813;DHT22;2420;51.202;8.698;2022-12-10T10:21:32;-1.60;1.00
4813;DHT22;2420;51.202;8.698;2022-12-10T10:23:59;-1.60;1.00
4813;DHT22;2420;51.202;8.698;2022-12-10T10:26:28;-1.70;1.00
4813;DHT22;2420;51.202;8.698;2022-12-10T10:28:58;-1.50;1.00
4813;DHT22;2420;51.202;8.698;2022-12-10T10:31:27;-1.30;1.00
4813;DHT22;2420;51.202;8.698;2022-12-10T10:33:59;-1.20;1.00
4813;DHT22;2420;51.202;8.698;2022-12-10T10:36:31;-1.20;1.00
4813;DHT22;2420;51.202;8.698;2022-12-10T10:39:11;-1.30;1.00
4813;DHT22;2420;51.202;8.698;2022-12-10T10:41:38;-1.20;1.00
4813;DHT22;2420;51.202;8.698;2022-12-10T10:44:05;-1.20;1.00
4813;DHT22;2420;51.202;8.698;2022-12-10T10:46:38;-0.90;1.00
4813;DHT22;2420;51.202;8.698;2022-12-10T10:51:48;-0.90;1.00
4813;DHT22;2420;51.202;8.698;2022-12-10T10:54:37;-0.70;1.00
4813;DHT22;2420;51.202;8.698;2022-12-10T10:57:50;-0.90;1.00
4813;DHT22;2420;51.202;8.698;2022-12-10T11:00:35;-1.00;1.00
4813;DHT22;2420;51.202;8.698;2022-12-10T11:02:54;-0.80;1.00
4813;DHT22;2420;51.202;8.698;2022-12-10T11:05:29;-0.70;1.00
4813;DHT22;2420;51.202;8.698;2022-12-10T11:08:16;-0.70;1.00
4813;DHT22;2420;51.202;8.698;2022-12-10T11:11:02;-0.70;1.00
4813;DHT22;2420;51.202;8.698;2022-12-10T11:13:33;-0.70;1.00
4813;DHT22;2420;51.202;8.698;2022-12-10T11:18:55;-0.70;1.00
4813;DHT22;2420;51.202;8.698;2022-12-10T11:21:22;-0.50;1.00
4813;DHT22;2420;51.202;8.698;2022-12-10T11:23:52;-0.60;1.00
4813;DHT22;2420;51.202;8.698;2022-12-10T11:29:14;-0.50;1.00
4813;DHT22;2420;51.202;8.698;2022-12-10T11:37:22;-0.20;1.00
4813;DHT22;2420;51.202;8.698;2022-12-10T11:48:15;0.10;1.00
4813;DHT22;2420;51.202;8.698;2022-12-10T11:50:52;0.10;1.00
4813;DHT22;2420;51.202;8.698;2022-12-10T11:59:01;0.20;1.00
4813;DHT22;2420;51.202;8.698;2022-12-10T12:12:02;-0.20;1.00
4813;DHT22;2420;51.202;8.698;2022-12-10T12:14:43;-0.30;1.00
4813;DHT22;2420;51.202;8.698;2022-12-10T12:17:16;-0.50;1.00
4813;DHT22;2420;51.202;8.698;2022-12-10T12:19:53;-0.50;1.00
4813;DHT22;2420;51.202;8.698;2022-12-10T12:22:25;-0.60;1.00
4813;DHT22;2420;51.202;8.698;2022-12-10T12:25:01;-0.50;1.00
4813;DHT22;2420;51.202;8.698;2022-12-10T12:27:41;-0.40;1.00
4813;DHT22;2420;51.202;8.698;2022-12-10T12:30:16;-0.30;1.00
4813;DHT22;2420;51.202;8.698;2022-12-10T12:32:49;-0.40;1.00
4813;DHT22;2420;51.202;8.698;2022-12-10T12:38:10;-0.60;1.00
4813;DHT22;2420;51.202;8.698;2022-12-10T12:41:04;-0.50;1.00
4813;DHT22;2420;51.202;8.698;2022-12-10T12:43:43;-0.70;1.00
4813;DHT22;2420;51.202;8.698;2022-12-10T12:46:16;-0.40;1.00
4813;DHT22;2420;51.202;8.698;2022-12-10T12:48:52;-0.70;1.00
4813;DHT22;2420;51.202;8.698;2022-12-10T12:51:29;-0.60;1.00
4813;DHT22;2420;51.202;8.698;2022-12-10T12:53:56;-0.50;1.00
4813;DHT22;2420;51.202;8.698;2022-12-10T13:01:58;-0.60;1.00
4813;DHT22;2420;51.202;8.698;2022-12-10T13:04:27;-0.40;1.00
4813;DHT22;2420;51.202;8.698;2022-12-10T13:12:46;-0.50;1.00
4813;DHT22;2420;51.202;8.698;2022-12-10T13:20:44;-0.50;1.00
4813;DHT22;2420;51.202;8.698;2022-12-10T13:23:28;-0.40;1.00
4813;DHT22;2420;51.202;8.698;2022-12-10T13:25:58;-0.40;1.00
4813;DHT22;2420;51.202;8.698;2022-12-10T13:28:31;-0.60;1.00
4813;DHT22;2420;51.202;8.698;2022-12-10T13:34:04;-0.60;1.00
4813;DHT22;2420;51.202;8.698;2022-12-10T13:42:24;-0.50;1.00
4813;DHT22;2420;51.202;8.698;2022-12-10T13:52:22;-0.70;1.00
4813;DHT22;2420;51.202;8.698;2022-12-10T14:01:02;-0.70;1.00
4813;DHT22;2420;51.202;8.698;2022-12-10T14:03:48;-1.00;1.00
4813;DHT22;2420;51.202;8.698;2022-12-10T14:06:16;-0.90;1.00
4813;DHT22;2420;51.202;8.698;2022-12-10T14:11:25;-1.10;1.00
4813;DHT22;2420;51.202;8.698;2022-12-10T14:13:55;-1.10;1.00
4813;DHT22;2420;51.202;8.698;2022-12-10T14:16:24;-0.90;1.00
4813;DHT22;2420;51.202;8.698;2022-12-10T14:18:55;-1.20;1.00
4813;DHT22;2420;51.202;8.698;2022-12-10T14:21:22;-1.20;1.00
4813;DHT22;2420;51.202;8.698;2022-12-10T14:23:50;-1.10;1.00
4813;DHT22;2420;51.202;8.698;2022-12-10T14:26:27;-1.20;1.00
4813;DHT22;2420;51.202;8.698;2022-12-10T14:28:57;-1.20;1.00
4813;DHT22;2420;51.202;8.698;2022-12-10T14:31:33;-1.40;1.00
4813;DHT22;2420;51.202;8.698;2022-12-10T14:34:05;-1.10;1.00
4813;DHT22;2420;51.202;8.698;2022-12-10T14:36:35;-1.30;1.00
4813;DHT22;2420;51.202;8.698;2022-12-10T14:39:02;-1.10;1.00
4813;DHT22;2420;51.202;8.698;2022-12-10T14:41:30;-1.20;1.00
4813;DHT22;2420;51.202;8.698;2022-12-10T14:44:01;-1.30;1.00
4813;DHT22;2420;51.202;8.698;2022-12-10T14:46:28;-1.20;1.00
4813;DHT22;2420;51.202;8.698;2022-12-10T14:48:55;-1.10;1.00
4813;DHT22;2420;51.202;8.698;2022-12-10T14:51:24;-1.10;1.00
4813;DHT22;2420;51.202;8.698;2022-12-10T14:53:54;-1.00;1.00
4813;DHT22;2420;51.202;8.698;2022-12-10T14:56:24;-1.10;1.00
4813;DHT22;2420;51.202;8.698;2022-12-10T14:59:14;-1.10;1.00
4813;DHT22;2420;51.202;8.698;2022-12-10T15:01:44;-1.10;1.00
4813;DHT22;2420;51.202;8.698;2022-12-10T15:04:17;-1.20;1.00
4813;DHT22;2420;51.202;8.698;2022-12-10T15:06:44;-1.40;1.00
4813;DHT22;2420;51.202;8.698;2022-12-10T15:09:24;-1.20;1.00
4813;DHT22;2420;51.202;8.698;2022-12-10T15:11:58;-1.30;1.00
4813;DHT22;2420;51.202;8.698;2022-12-10T15:14:25;-1.40;1.00
4813;DHT22;2420;51.202;8.698;2022-12-10T15:16:55;-1.40;1.00
4813;DHT22;2420;51.202;8.698;2022-12-10T15:21:50;-1.60;1.00
4813;DHT22;2420;51.202;8.698;2022-12-10T15:26:46;-1.30;1.00
4813;DHT22;2420;51.202;8.698;2022-12-10T15:31:47;-1.60;1.00
4813;DHT22;2420;51.202;8.698;2022-12-10T15:34:13;-1.60;1.00
4813;DHT22;2420;51.202;8.698;2022-12-10T15:36:52;-1.50;1.00
4813;DHT22;2420;51.202;8.698;2022-12-10T15:47:17;-1.80;1.00
4813;DHT22;2420;51.202;8.698;2022-12-10T15:49:43;-1.70;1.00
4813;DHT22;2420;51.202;8.698;2022-12-10T15:52:19;-1.70;1.00
4813;DHT22;2420;51.202;8.698;2022-12-10T15:54:48;-1.70;1.00
4813;DHT22;2420;51.202;8.698;2022-12-10T15:59:42;-1.80;1.00
4813;DHT22;2420;51.202;8.698;2022-12-10T16:04:45;-1.70;1.00
4813;DHT22;2420;51.202;8.698;2022-12-10T16:07:11;-1.50;1.00
4813;DHT22;2420;51.202;8.698;2022-12-10T16:09:36;-1.80;1.00
4813;DHT22;2420;51.202;8.698;2022-12-10T16:12:03;-2.00;1.00
4813;DHT22;2420;51.202;8.698;2022-12-10T16:14:28;-1.90;1.00
4813;DHT22;2420;51.202;8.698;2022-12-10T16:16:54;-1.90;1.00
4813;DHT22;2420;51.202;8.698;2022-12-10T16:19:19;-2.00;1.00
4813;DHT22;2420;51.202;8.698;2022-12-10T16:21:45;-2.10;1.00
4813;DHT22;2420;51.202;8.698;2022-12-10T16:24:12;-2.10;1.00
4813;DHT22;2420;51.202;8.698;2022-12-10T16:26:38;-2.00;1.00
4813;DHT22;2420;51.202;8.698;2022-12-10T16:29:03;-2.30;1.00
4813;DHT22;2420;51.202;8.698;2022-12-10T16:31:29;-2.20;1.00
4813;DHT22;2420;51.202;8.698;2022-12-10T16:33:55;-2.30;1.00
4813;DHT22;2420;51.202;8.698;2022-12-10T16:36:21;-2.40;1.00
4813;DHT22;2420;51.202;8.698;2022-12-10T16:38:47;-2.30;1.00
4813;DHT22;2420;51.202;8.698;2022-12-10T16:41:18;-2.20;1.00
4813;DHT22;2420;51.202;8.698;2022-12-10T16:43:44;-2.10;1.00
4813;DHT22;2420;51.202;8.698;2022-12-10T16:46:11;-2.20;1.00
4813;DHT22;2420;51.202;8.698;2022-12-10T16:48:37;-2.30;1.00
4813;DHT22;2420;51.202;8.698;2022-12-10T16:51:02;-2.20;1.00
4813;DHT22;2420;51.202;8.698;2022-12-10T16:53:29;-2.50;1.00
4813;DHT22;2420;51.202;8.698;2022-12-10T16:55:59;-2.40;1.00
4813;DHT22;2420;51.202;8.698;2022-12-10T16:58:25;-2.50;1.00
4813;DHT22;2420;51.202;8.698;2022-12-10T17:00:52;-2.40;1.00
4813;DHT22;2420;51.202;8.698;2022-12-10T17:03:21;-2.50;1.00
4813;DHT22;2420;51.202;8.698;2022-12-10T17:05:55;-2.40;1.00
4813;DHT22;2420;51.202;8.698;2022-12-10T17:08:22;-2.10;1.00
4813;DHT22;2420;51.202;8.698;2022-12-10T17:10:48;-2.40;1.00
4813;DHT22;2420;51.202;8.698;2022-12-10T17:13:33;-2.10;1.00
4813;DHT22;2420;51.202;8.698;2022-12-10T17:16:00;-2.20;1.00
4813;DHT22;2420;51.202;8.698;2022-12-10T17:18:26;-2.20;1.00
4813;DHT22;2420;51.202;8.698;2022-12-10T17:20:52;-2.00;1.00
4813;DHT22;2420;51.202;8.698;2022-12-10T17:23:18;-2.40;1.00
4813;DHT22;2420;51.202;8.698;2022-12-10T17:25:44;-2.30;1.00
4813;DHT22;2420;51.202;8.698;2022-12-10T17:28:13;-2.20;1.00
4813;DHT22;2420;51.202;8.698;2022-12-10T17:30:39;-2.40;1.00
4813;DHT22;2420;51.202;8.698;2022-12-10T17:33:05;-2.50;1.00
4813;DHT22;2420;51.202;8.698;2022-12-10T17:35:31;-2.40;1.00
4813;DHT22;2420;51.202;8.698;2022-12-10T17:37:56;-2.30;1.00
4813;DHT22;2420;51.202;8.698;2022-12-10T17:40:22;-2.60;1.00
4813;DHT22;2420;51.202;8.698;2022-12-10T17:42:48;-2.30;1.00
4813;DHT22;2420;51.202;8.698;2022-12-10T17:45:17;-2.60;1.00
4813;DHT22;2420;51.202;8.698;2022-12-10T17:47:43;-2.20;1.00
4813;DHT22;2420;51.202;8.698;2022-12-10T17:50:25;-2.30;1.00
4813;DHT22;2420;51.202;8.698;2022-12-10T17:52:51;-2.40;1.00
4813;DHT22;2420;51.202;8.698;2022-12-10T17:55:17;-2.30;1.00
4813;DHT22;2420;51.202;8.698;2022-12-10T17:57:43;-2.30;1.00
4813;DHT22;2420;51.202;8.698;2022-12-10T18:00:11;-2.10;1.00
4813;DHT22;2420;51.202;8.698;2022-12-10T18:02:38;-2.00;1.00
4813;DHT22;2420;51.202;8.698;2022-12-10T18:05:04;-2.00;1.00
4813;DHT22;2420;51.202;8.698;2022-12-10T18:07:29;-2.10;1.00
4813;DHT22;2420;51.202;8.698;2022-12-10T18:09:55;-2.10;1.00
4813;DHT22;2420;51.202;8.698;2022-12-10T18:12:20;-2.10;1.00
4813;DHT22;2420;51.202;8.698;2022-12-10T18:14:46;-2.20;1.00
4813;DHT22;2420;51.202;8.698;2022-12-10T18:17:13;-2.30;1.00
4813;DHT22;2420;51.202;8.698;2022-12-10T18:19:39;-2.30;1.00
4813;DHT22;2420;51.202;8.698;2022-12-10T18:22:05;-2.20;1.00
4813;DHT22;2420;51.202;8.698;2022-12-10T18:24:30;-2.10;1.00
4813;DHT22;2420;51.202;8.698;2022-12-10T18:26:56;-2.10;1.00
4813;DHT22;2420;51.202;8.698;2022-12-10T18:29:22;-2.10;1.00
4813;DHT22;2420;51.202;8.698;2022-12-10T18:31:47;-2.00;1.00
4813;DHT22;2420;51.202;8.698;2022-12-10T18:34:14;-2.00;1.00